Time;durP1;ratioP1;P1;durP2;ratioP2;P2;SDS_P1;SDS_P2;PMS_P1;PMS_P2;Temp;Humidity;BMP_temperature;BMP_pressure;BME280_temperature;BME280_humidity;BME280_pressure;Samples;Min_cycle;Max_cycle;Signal;HPM_P1;HPM_P2
2024/03/24 00:01:08;;;;;;;0.10;0.10;;;4.10;99.90;;;;;;5030443;28;20287;-66
2024/03/24 00:03:34;;;;;;;0.20;0.10;;;4.10;99.90;;;;;;5030006;28;20204;-65
2024/03/24 00:06:01;;;;;;;0.10;0.10;;;4.00;99.90;;;;;;5024895;28;20231;-65
2024/03/24 00:08:27;;;;;;;2.67;0.10;;;4.00;99.90;;;;;;5025940;28;20201;-66
2024/03/24 00:10:54;;;;;;;0.50;0.10;;;4.20;99.90;;;;;;5034369;28;20565;-66
2024/03/24 00:13:21;;;;;;;0.10;0.10;;;4.10;99.90;;;;;;5027753;28;20208;-66
2024/03/24 00:15:48;;;;;;;0.17;0.17;;;4.20;99.90;;;;;;5023049;28;20220;-66
2024/03/24 00:18:14;;;;;;;0.40;0.20;;;4.20;99.90;;;;;;5033416;28;20209;-66
2024/03/24 00:20:41;;;;;;;0.13;0.10;;;4.00;99.90;;;;;;5032593;28;20278;-66
2024/03/24 00:23:07;;;;;;;0.20;0.20;;;4.10;99.90;;;;;;5032251;28;20256;-67
2024/03/24 00:25:34;;;;;;;0.13;0.13;;;4.10;99.90;;;;;;5034045;28;20212;-66
2024/03/24 00:28:00;;;;;;;0.20;0.20;;;4.20;99.90;;;;;;5033720;28;20623;-65
2024/03/24 00:30:29;;;;;;;0.17;0.17;;;4.20;99.90;;;;;;5028627;28;20205;-66
2024/03/24 00:32:55;;;;;;;0.50;0.10;;;4.10;99.90;;;;;;5031635;28;20666;-66
2024/03/24 00:35:22;;;;;;;0.10;0.10;;;4.10;99.90;;;;;;5025173;28;20277;-66
2024/03/24 00:37:51;;;;;;;0.30;0.07;;;4.20;99.90;;;;;;5033188;28;20557;-66
2024/03/24 00:40:18;;;;;;;0.20;0.10;;;4.00;99.90;;;;;;5033852;28;20732;-66
2024/03/24 00:42:44;;;;;;;2.90;0.03;;;4.20;99.90;;;;;;5031665;28;20608;-66
2024/03/24 00:45:11;;;;;;;0.00;0.00;;;4.10;99.90;;;;;;5022815;28;20228;-66
2024/03/24 00:47:39;;;;;;;0.03;0.03;;;4.10;99.90;;;;;;5031994;28;20646;-66
2024/03/24 00:50:09;;;;;;;0.00;0.00;;;4.20;99.90;;;;;;5033405;28;20194;-66
2024/03/24 00:52:35;;;;;;;0.20;0.00;;;4.10;99.90;;;;;;5033529;28;20239;-66
2024/03/24 00:55:02;;;;;;;0.20;0.00;;;4.20;99.90;;;;;;5033908;28;20248;-66
2024/03/24 00:57:28;;;;;;;0.10;0.00;;;4.10;99.90;;;;;;5031677;28;20213;-66
2024/03/24 00:59:55;;;;;;;0.97;0.10;;;4.20;99.90;;;;;;5028926;28;20958;-66
2024/03/24 01:02:21;;;;;;;0.20;0.00;;;4.30;99.90;;;;;;5033233;28;20262;-66
2024/03/24 01:04:49;;;;;;;0.00;0.00;;;4.20;99.90;;;;;;5033161;28;20196;-66
2024/03/24 01:07:15;;;;;;;0.10;0.10;;;4.20;99.90;;;;;;5028834;28;20208;-66
2024/03/24 01:09:42;;;;;;;0.40;0.10;;;4.20;99.90;;;;;;5024891;28;20200;-66
2024/03/24 01:12:08;;;;;;;0.10;0.10;;;4.20;99.90;;;;;;5032021;28;20214;-66
2024/03/24 01:14:36;;;;;;;1.07;0.10;;;4.10;99.90;;;;;;5029285;28;20199;-66
2024/03/24 01:17:02;;;;;;;2.93;0.20;;;4.20;99.90;;;;;;5024065;28;20801;-66
2024/03/24 01:19:29;;;;;;;0.17;0.17;;;4.20;99.90;;;;;;5027189;28;20216;-66
2024/03/24 01:21:57;;;;;;;0.10;0.10;;;4.20;99.90;;;;;;5032391;28;20204;-66
2024/03/24 01:24:24;;;;;;;1.03;0.20;;;4.30;99.90;;;;;;5031888;28;20200;-66
2024/03/24 01:26:50;;;;;;;0.10;0.10;;;4.30;99.90;;;;;;5026878;28;20221;-66
2024/03/24 01:29:18;;;;;;;0.47;0.30;;;4.20;99.90;;;;;;5026933;28;20246;-67
2024/03/24 01:31:44;;;;;;;1.00;0.10;;;4.20;99.90;;;;;;5033515;28;20243;-66
2024/03/24 01:34:10;;;;;;;0.20;0.20;;;4.30;99.90;;;;;;5028536;28;20334;-66
2024/03/24 01:36:36;;;;;;;0.10;0.10;;;4.30;99.90;;;;;;5028508;28;20232;-66
2024/03/24 01:39:05;;;;;;;0.20;0.10;;;4.30;99.90;;;;;;5033122;28;20763;-66
2024/03/24 01:41:31;;;;;;;1.17;0.00;;;4.30;99.90;;;;;;5024587;28;20639;-66
2024/03/24 01:43:58;;;;;;;0.20;0.10;;;4.30;99.90;;;;;;5024299;28;20200;-66
2024/03/24 01:46:24;;;;;;;0.00;0.00;;;4.40;99.90;;;;;;5023642;28;20229;-66
2024/03/24 01:48:51;;;;;;;0.00;0.00;;;4.40;99.90;;;;;;5031431;28;20197;-66
2024/03/24 01:51:18;;;;;;;0.87;0.10;;;4.40;99.90;;;;;;5031669;28;20751;-66
2024/03/24 01:53:46;;;;;;;0.10;0.07;;;4.40;99.90;;;;;;5025008;28;20265;-66
2024/03/24 01:56:14;;;;;;;0.47;0.13;;;4.40;99.90;;;;;;5032626;28;20642;-66
2024/03/24 01:58:41;;;;;;;0.43;0.00;;;4.40;99.90;;;;;;5030538;28;20200;-66
2024/03/24 02:01:08;;;;;;;0.67;0.10;;;4.40;99.90;;;;;;5030053;28;20220;-66
2024/03/24 02:03:37;;;;;;;0.73;0.10;;;4.40;99.90;;;;;;5033038;28;20287;-66
2024/03/24 02:06:04;;;;;;;0.10;0.10;;;4.50;99.90;;;;;;5047796;28;20216;-66
2024/03/24 02:08:32;;;;;;;0.17;0.17;;;4.50;99.90;;;;;;5032441;28;20192;-66
2024/03/24 02:10:59;;;;;;;0.10;0.10;;;4.50;99.90;;;;;;5017621;28;20256;-66
2024/03/24 02:13:27;;;;;;;0.30;0.10;;;4.50;99.90;;;;;;5030535;28;20210;-66
2024/03/24 02:15:54;;;;;;;0.60;0.10;;;4.60;99.90;;;;;;5031228;28;20232;-66
2024/03/24 02:18:21;;;;;;;0.80;0.20;;;4.60;99.90;;;;;;5025149;28;20655;-66
2024/03/24 02:20:47;;;;;;;0.20;0.10;;;4.60;99.90;;;;;;5025135;28;20220;-66
2024/03/24 02:23:15;;;;;;;0.10;0.10;;;4.60;99.90;;;;;;5031863;28;20555;-66
2024/03/24 02:25:41;;;;;;;0.10;0.10;;;4.60;99.90;;;;;;5030831;28;20276;-66
2024/03/24 02:28:08;;;;;;;1.73;0.63;;;4.50;99.90;;;;;;5029427;28;20606;-66
2024/03/24 02:30:34;;;;;;;0.00;0.00;;;4.40;99.90;;;;;;5031244;28;20251;-66
2024/03/24 02:33:02;;;;;;;0.77;0.07;;;4.50;99.90;;;;;;5031053;28;20192;-66
2024/03/24 02:35:28;;;;;;;0.00;0.00;;;4.40;99.90;;;;;;5030803;28;20235;-66
2024/03/24 02:37:55;;;;;;;0.20;0.00;;;4.60;99.90;;;;;;5027061;28;20326;-65
2024/03/24 02:40:22;;;;;;;0.00;0.00;;;4.50;99.90;;;;;;5031172;28;20621;-66
2024/03/24 02:42:49;;;;;;;0.00;0.00;;;4.50;99.90;;;;;;5031125;28;20668;-66
2024/03/24 02:45:15;;;;;;;0.10;0.10;;;4.50;99.90;;;;;;5031790;28;20720;-66
2024/03/24 02:47:42;;;;;;;0.10;0.10;;;4.60;99.90;;;;;;5030199;28;20204;-66
2024/03/24 02:50:09;;;;;;;0.10;0.10;;;4.50;99.90;;;;;;5031786;28;20633;-66
2024/03/24 02:52:36;;;;;;;0.03;0.03;;;4.50;99.90;;;;;;5029433;28;20199;-65
2024/03/24 02:55:02;;;;;;;0.07;0.07;;;4.50;99.90;;;;;;5029997;28;20231;-65
2024/03/24 02:57:31;;;;;;;0.10;0.10;;;4.50;99.90;;;;;;5030589;28;20203;-66
2024/03/24 02:59:57;;;;;;;0.10;0.10;;;4.50;99.90;;;;;;5031507;28;20728;-66
2024/03/24 03:02:24;;;;;;;0.10;0.03;;;4.60;99.90;;;;;;5017973;28;20204;-66
2024/03/24 03:04:51;;;;;;;0.10;0.10;;;4.50;99.90;;;;;;5023510;28;20257;-66
2024/03/24 03:07:18;;;;;;;1.20;0.10;;;4.50;99.90;;;;;;5030317;28;20203;-66
2024/03/24 03:09:44;;;;;;;1.30;0.17;;;4.70;99.90;;;;;;5029945;28;20279;-66
2024/03/24 03:12:10;;;;;;;0.90;0.00;;;4.60;99.90;;;;;;5054580;22;20238;-62
2024/03/24 03:14:38;;;;;;;0.30;0.10;;;4.60;99.90;;;;;;5049130;28;20211;-62
2024/03/24 03:17:06;;;;;;;0.10;0.00;;;4.50;99.90;;;;;;5042164;28;20290;-62
2024/03/24 03:19:31;;;;;;;0.10;0.10;;;4.60;99.90;;;;;;5051765;28;20702;-62
2024/03/24 03:21:58;;;;;;;0.40;0.10;;;4.70;99.90;;;;;;5047146;28;20303;-62
2024/03/24 03:24:25;;;;;;;2.53;0.20;;;4.70;99.90;;;;;;5049263;28;20190;-62
2024/03/24 03:26:51;;;;;;;0.63;0.20;;;4.60;99.90;;;;;;5047533;28;20651;-63
2024/03/24 03:29:17;;;;;;;0.40;0.40;;;4.70;99.90;;;;;;5051734;28;20619;-62
2024/03/24 03:31:46;;;;;;;1.53;0.20;;;4.80;99.90;;;;;;5050625;28;20219;-62
2024/03/24 03:34:12;;;;;;;0.10;0.10;;;4.70;99.90;;;;;;5046935;28;20649;-62
2024/03/24 03:36:39;;;;;;;0.20;0.07;;;4.70;99.90;;;;;;5049736;28;20196;-62
2024/03/24 03:39:05;;;;;;;0.80;0.10;;;4.70;99.90;;;;;;5051738;28;20198;-62
2024/03/24 03:41:32;;;;;;;0.30;0.13;;;4.60;99.90;;;;;;5051275;28;20277;-62
2024/03/24 03:43:58;;;;;;;1.40;0.13;;;4.50;99.90;;;;;;5041172;28;20213;-62
2024/03/24 03:46:25;;;;;;;0.40;0.10;;;4.50;99.90;;;;;;5030792;28;20197;-62
2024/03/24 03:48:53;;;;;;;0.10;0.10;;;4.60;99.90;;;;;;5031563;28;20680;-62
2024/03/24 03:51:29;;;;;;;0.10;0.10;;;4.50;99.90;;;;;;5031665;28;20231;-62
2024/03/24 03:53:58;;;;;;;0.83;0.23;;;4.50;99.90;;;;;;5044691;28;20199;-62
2024/03/24 03:56:25;;;;;;;0.10;0.10;;;4.50;99.90;;;;;;5046129;28;20204;-63
2024/03/24 03:58:51;;;;;;;0.73;0.10;;;4.60;99.90;;;;;;5034793;28;20199;-62
2024/03/24 04:01:18;;;;;;;1.30;0.10;;;4.70;99.90;;;;;;5036846;28;20649;-62
2024/03/24 04:03:44;;;;;;;0.10;0.10;;;4.70;99.90;;;;;;5037970;28;20260;-62
2024/03/24 04:06:12;;;;;;;1.53;0.10;;;4.60;99.90;;;;;;5037567;28;20204;-62
2024/03/24 04:08:39;;;;;;;0.17;0.10;;;4.60;99.90;;;;;;5037601;28;20269;-62
2024/03/24 04:11:07;;;;;;;0.10;0.10;;;4.60;99.90;;;;;;5036095;28;20204;-62
2024/03/24 04:13:33;;;;;;;1.67;0.20;;;4.50;99.90;;;;;;5033860;28;20241;-62
2024/03/24 04:16:00;;;;;;;0.10;0.10;;;4.60;99.90;;;;;;5033882;28;20242;-62
2024/03/24 04:18:26;;;;;;;0.13;0.10;;;4.60;99.90;;;;;;5038320;28;20239;-62
2024/03/24 04:20:53;;;;;;;0.20;0.20;;;4.70;99.90;;;;;;5038158;28;20742;-62
2024/03/24 04:23:20;;;;;;;3.47;0.10;;;4.80;99.90;;;;;;5036583;28;20266;-62
2024/03/24 04:25:49;;;;;;;0.20;0.20;;;4.80;99.90;;;;;;5036839;28;20204;-62
2024/03/24 04:28:15;;;;;;;1.40;0.10;;;4.70;99.90;;;;;;5036766;28;20633;-62
2024/03/24 04:30:42;;;;;;;0.20;0.20;;;4.70;99.90;;;;;;5042826;28;20203;-62
2024/03/24 04:33:08;;;;;;;0.70;0.10;;;4.80;99.90;;;;;;5035530;28;20731;-62
2024/03/24 04:35:35;;;;;;;0.10;0.10;;;4.70;99.90;;;;;;5046222;28;20230;-62
2024/03/24 04:38:01;;;;;;;0.10;0.10;;;4.80;99.90;;;;;;5044078;28;20246;-62
2024/03/24 04:40:29;;;;;;;1.40;0.17;;;4.80;99.90;;;;;;5037650;28;20220;-62
2024/03/24 04:42:56;;;;;;;0.90;0.13;;;4.90;99.90;;;;;;5037853;28;20224;-62
2024/03/24 04:45:22;;;;;;;1.30;0.10;;;4.90;99.90;;;;;;5045906;28;20738;-62
2024/03/24 04:47:53;;;;;;;0.57;0.20;;;4.90;99.90;;;;;;5045469;28;20196;-62
2024/03/24 04:50:20;;;;;;;0.90;0.10;;;4.80;99.90;;;;;;5035690;28;20230;-62
2024/03/24 04:52:49;;;;;;;5.00;1.47;;;4.80;99.90;;;;;;5034113;28;20880;-62
2024/03/24 04:55:16;;;;;;;0.40;0.10;;;4.80;99.90;;;;;;5037350;28;20214;-62
2024/03/24 04:57:43;;;;;;;1.50;0.20;;;4.70;99.90;;;;;;5039803;28;20261;-62
2024/03/24 05:00:12;;;;;;;0.10;0.10;;;4.60;99.90;;;;;;5039955;28;20223;-62
2024/03/24 05:02:38;;;;;;;0.00;0.00;;;4.60;99.90;;;;;;5041992;28;20844;-62
2024/03/24 05:05:06;;;;;;;1.47;0.30;;;4.60;99.90;;;;;;5042172;28;20210;-62
2024/03/24 05:07:32;;;;;;;1.83;1.73;;;4.70;99.90;;;;;;5037692;28;20258;-62
2024/03/24 05:09:59;;;;;;;2.53;0.97;;;4.60;99.90;;;;;;5039624;28;20208;-62
2024/03/24 05:12:25;;;;;;;1.60;1.07;;;4.50;99.90;;;;;;5042894;28;20786;-62
2024/03/24 05:14:54;;;;;;;1.73;0.50;;;4.50;99.90;;;;;;5048778;28;20199;-60
2024/03/24 05:17:20;;;;;;;0.53;0.40;;;4.50;99.90;;;;;;5039303;28;20265;-60
2024/03/24 05:19:47;;;;;;;0.10;0.10;;;4.50;99.90;;;;;;5039041;28;20199;-61
2024/03/24 05:22:13;;;;;;;0.40;0.20;;;4.40;99.90;;;;;;5048771;28;20636;-62
2024/03/24 05:24:40;;;;;;;0.37;0.10;;;4.40;99.90;;;;;;5040655;28;20198;-60
2024/03/24 05:27:06;;;;;;;0.20;0.20;;;4.40;99.90;;;;;;5040577;28;20266;-60
2024/03/24 05:29:33;;;;;;;0.10;0.10;;;4.30;99.90;;;;;;5045520;28;20211;-60
2024/03/24 05:32:01;;;;;;;0.40;0.40;;;4.30;99.90;;;;;;5042197;28;20224;-60
2024/03/24 05:34:28;;;;;;;1.60;0.20;;;4.50;99.90;;;;;;5037222;28;20272;-61
2024/03/24 05:36:54;;;;;;;0.57;0.20;;;4.50;99.90;;;;;;5046145;28;20237;-60
2024/03/24 05:39:21;;;;;;;0.17;0.10;;;4.40;99.90;;;;;;5047309;28;20210;-61
2024/03/24 05:41:48;;;;;;;0.30;0.30;;;4.30;99.90;;;;;;5043418;28;20249;-60
2024/03/24 05:44:15;;;;;;;1.57;0.23;;;4.30;99.90;;;;;;5033254;28;20200;-61
2024/03/24 05:46:41;;;;;;;0.47;0.10;;;4.40;99.90;;;;;;5039569;28;20296;-60
2024/03/24 05:49:10;;;;;;;0.20;0.20;;;4.30;99.90;;;;;;5038993;28;20200;-61
2024/03/24 05:51:37;;;;;;;1.20;0.20;;;4.40;99.90;;;;;;5037569;28;20212;-61
2024/03/24 05:54:04;;;;;;;1.13;0.17;;;4.40;99.90;;;;;;5043698;28;20208;-61
2024/03/24 05:56:30;;;;;;;0.47;0.20;;;4.40;99.90;;;;;;5039832;28;20203;-62
2024/03/24 05:58:57;;;;;;;0.30;0.20;;;4.40;99.90;;;;;;5042953;28;20201;-61
2024/03/24 06:01:23;;;;;;;0.20;0.20;;;4.40;99.90;;;;;;5041737;28;20785;-60
2024/03/24 06:03:51;;;;;;;0.27;0.20;;;4.30;99.90;;;;;;5043858;28;20192;-61
2024/03/24 06:06:18;;;;;;;0.30;0.20;;;4.20;99.90;;;;;;5040426;28;20206;-60
2024/03/24 06:08:45;;;;;;;0.20;0.20;;;4.20;99.90;;;;;;5040992;28;20199;-60
2024/03/24 06:11:11;;;;;;;0.57;0.30;;;4.20;99.90;;;;;;5045442;28;20565;-61
2024/03/24 06:13:38;;;;;;;0.40;0.40;;;4.30;99.90;;;;;;5044884;28;20668;-60
2024/03/24 06:16:05;;;;;;;0.43;0.40;;;4.30;99.90;;;;;;5044696;28;20235;-60
2024/03/24 06:18:33;;;;;;;0.30;0.30;;;4.30;99.90;;;;;;5038156;28;20228;-60
2024/03/24 06:21:00;;;;;;;0.50;0.50;;;4.30;99.90;;;;;;5042163;28;20223;-60
2024/03/24 06:23:28;;;;;;;1.40;0.50;;;4.40;99.90;;;;;;5049447;28;20281;-61
2024/03/24 06:25:54;;;;;;;0.30;0.30;;;4.40;99.90;;;;;;5045529;28;20629;-61
2024/03/24 06:28:21;;;;;;;2.40;0.30;;;4.30;99.90;;;;;;5039077;28;20226;-60
2024/03/24 06:30:48;;;;;;;0.20;0.20;;;4.20;99.90;;;;;;5041543;28;20662;-60
2024/03/24 06:33:15;;;;;;;0.37;0.37;;;4.20;99.90;;;;;;5039043;28;20235;-62
2024/03/24 06:35:41;;;;;;;0.60;0.40;;;4.30;99.90;;;;;;5037018;28;20204;-61
2024/03/24 06:38:08;;;;;;;0.47;0.43;;;4.40;99.90;;;;;;5043652;28;20204;-60
2024/03/24 06:40:35;;;;;;;4.23;0.60;;;4.20;99.90;;;;;;5042325;28;20217;-60
2024/03/24 06:43:02;;;;;;;0.87;0.60;;;4.30;99.90;;;;;;5039055;28;20220;-60
2024/03/24 06:45:30;;;;;;;0.53;0.40;;;4.40;99.90;;;;;;5047986;28;20200;-63
2024/03/24 06:47:59;;;;;;;0.33;0.20;;;4.30;99.90;;;;;;5045051;28;20196;-60
2024/03/24 06:50:25;;;;;;;0.10;0.10;;;4.20;99.90;;;;;;5039109;28;20211;-62
2024/03/24 06:52:52;;;;;;;1.37;0.10;;;4.20;99.90;;;;;;5044034;28;20216;-60
2024/03/24 06:55:19;;;;;;;0.20;0.20;;;4.00;99.90;;;;;;5042482;28;20266;-63
2024/03/24 06:57:50;;;;;;;0.47;0.10;;;4.10;99.90;;;;;;5031904;28;20207;-60
2024/03/24 07:00:17;;;;;;;0.17;0.10;;;3.80;99.90;;;;;;5049058;28;21006;-60
2024/03/24 07:02:44;;;;;;;0.20;0.20;;;3.70;99.90;;;;;;5038279;28;20791;-61
2024/03/24 07:05:10;;;;;;;0.83;0.20;;;3.60;99.90;;;;;;5052018;28;20270;-62
2024/03/24 07:07:37;;;;;;;0.10;0.10;;;3.50;99.90;;;;;;5048661;28;21431;-60
2024/03/24 07:10:04;;;;;;;0.30;0.30;;;3.60;99.90;;;;;;5048111;28;20204;-62
2024/03/24 07:12:31;;;;;;;0.30;0.30;;;3.50;99.90;;;;;;5043288;28;20764;-60
2024/03/24 07:14:58;;;;;;;0.40;0.40;;;3.30;99.90;;;;;;5041508;28;20206;-62
2024/03/24 07:17:25;;;;;;;0.83;0.50;;;3.30;99.90;;;;;;5046428;28;20735;-60
2024/03/24 07:19:51;;;;;;;0.40;0.40;;;3.30;99.90;;;;;;5034901;28;20216;-60
2024/03/24 07:22:18;;;;;;;1.43;0.83;;;3.20;99.90;;;;;;5049907;28;20232;-63
2024/03/24 07:24:45;;;;;;;0.63;0.63;;;3.20;99.90;;;;;;5042792;28;20623;-61
2024/03/24 07:27:12;;;;;;;0.50;0.50;;;3.40;99.90;;;;;;5042805;28;20291;-61
2024/03/24 07:29:38;;;;;;;1.10;1.00;;;3.30;99.90;;;;;;5040237;28;20239;-61
2024/03/24 07:32:07;;;;;;;1.07;0.50;;;3.50;99.90;;;;;;5039920;28;20256;-61
2024/03/24 07:34:33;;;;;;;0.17;0.17;;;3.40;99.90;;;;;;5048588;28;20206;-60
2024/03/24 07:37:01;;;;;;;0.10;0.10;;;3.70;99.90;;;;;;5034400;28;20223;-60
2024/03/24 07:39:27;;;;;;;0.20;0.20;;;3.70;99.90;;;;;;5049820;28;20290;-60
2024/03/24 07:41:56;;;;;;;0.20;0.20;;;3.70;99.90;;;;;;5046571;28;20219;-60
2024/03/24 07:44:22;;;;;;;0.23;0.23;;;3.80;99.90;;;;;;5051110;28;20213;-60
2024/03/24 07:46:49;;;;;;;0.80;0.33;;;3.70;99.90;;;;;;5042386;28;20273;-60
2024/03/24 07:49:17;;;;;;;0.10;0.10;;;3.90;99.90;;;;;;5042297;28;20212;-60
2024/03/24 07:51:44;;;;;;;0.80;0.40;;;3.80;99.90;;;;;;5033784;28;20219;-60
2024/03/24 07:54:10;;;;;;;0.20;0.20;;;4.00;99.90;;;;;;5042766;28;20258;-61
2024/03/24 07:56:37;;;;;;;0.20;0.20;;;4.00;99.90;;;;;;5048072;28;20239;-61
2024/03/24 07:59:03;;;;;;;0.10;0.10;;;4.20;99.90;;;;;;5035218;28;20220;-60
2024/03/24 08:01:30;;;;;;;0.20;0.20;;;4.40;99.90;;;;;;5032048;28;20250;-61
2024/03/24 08:03:56;;;;;;;2.20;1.07;;;4.40;99.90;;;;;;5032636;28;20242;-61
2024/03/24 08:06:25;;;;;;;0.40;0.30;;;4.20;99.90;;;;;;5030626;28;20227;-61
2024/03/24 08:08:51;;;;;;;0.90;0.40;;;4.30;99.90;;;;;;5029429;28;20245;-61
2024/03/24 08:11:18;;;;;;;0.20;0.20;;;4.50;99.90;;;;;;5031317;28;20201;-61
2024/03/24 08:13:44;;;;;;;0.10;0.10;;;4.40;99.90;;;;;;5034073;28;20290;-61
2024/03/24 08:16:11;;;;;;;0.60;0.37;;;4.30;99.90;;;;;;5041427;28;20235;-61
2024/03/24 08:18:37;;;;;;;0.37;0.37;;;4.40;99.90;;;;;;5040405;28;20203;-61
2024/03/24 08:21:05;;;;;;;1.13;0.60;;;4.50;99.90;;;;;;5034106;28;20452;-65
2024/03/24 08:23:33;;;;;;;1.57;0.30;;;4.40;99.90;;;;;;5043189;28;20208;-66
2024/03/24 08:26:00;;;;;;;0.50;0.50;;;4.60;99.90;;;;;;5049266;28;20289;-68
2024/03/24 08:28:26;;;;;;;1.83;0.30;;;4.60;99.90;;;;;;5034721;28;20287;-68
2024/03/24 08:30:54;;;;;;;0.87;0.20;;;4.60;99.90;;;;;;5043346;28;20193;-67
2024/03/24 08:33:20;;;;;;;1.10;0.17;;;4.60;99.90;;;;;;5039176;28;20278;-67
2024/03/24 08:35:47;;;;;;;0.37;0.20;;;4.80;99.90;;;;;;5046044;28;20203;-68
2024/03/24 08:38:13;;;;;;;0.60;0.40;;;4.80;99.90;;;;;;5035548;28;21929;-72
2024/03/24 08:40:43;;;;;;;0.30;0.30;;;4.90;99.90;;;;;;5039387;28;20615;-71
2024/03/24 08:43:09;;;;;;;0.83;0.30;;;4.90;99.90;;;;;;5042050;28;20235;-69
2024/03/24 08:45:36;;;;;;;2.63;0.13;;;4.90;99.90;;;;;;5043895;28;20194;-70
2024/03/24 08:48:03;;;;;;;0.20;0.20;;;5.00;99.90;;;;;;5047038;28;20258;-69
2024/03/24 08:50:33;;;;;;;0.20;0.20;;;5.10;99.90;;;;;;5048649;28;20203;-69
2024/03/24 08:53:00;;;;;;;3.10;0.30;;;5.40;99.90;;;;;;5054037;28;20231;-70
2024/03/24 08:55:27;;;;;;;2.67;0.20;;;5.60;99.90;;;;;;5053181;28;20590;-64
2024/03/24 08:57:54;;;;;;;1.80;0.20;;;5.70;99.90;;;;;;5045553;28;20205;-71
2024/03/24 09:00:22;;;;;;;1.50;0.20;;;5.80;99.90;;;;;;5043992;28;20295;-70
2024/03/24 09:02:48;;;;;;;0.40;0.20;;;5.70;99.90;;;;;;5040932;28;20282;-71
2024/03/24 09:05:15;;;;;;;0.27;0.20;;;5.70;99.90;;;;;;5038168;28;20207;-69
2024/03/24 09:07:41;;;;;;;1.70;0.30;;;5.60;99.90;;;;;;5038158;28;20207;-68
2024/03/24 09:10:09;;;;;;;1.23;0.30;;;5.60;99.90;;;;;;5043451;28;20587;-67
2024/03/24 09:12:36;;;;;;;0.73;0.13;;;5.60;99.90;;;;;;5046345;28;20239;-68
2024/03/24 09:15:05;;;;;;;1.03;0.30;;;5.60;99.90;;;;;;5069070;22;20231;-68
2024/03/24 09:17:31;;;;;;;1.53;0.20;;;5.60;99.90;;;;;;5049793;28;20624;-68
2024/03/24 09:19:59;;;;;;;0.20;0.20;;;5.50;99.90;;;;;;5051776;28;20199;-68
2024/03/24 09:22:25;;;;;;;0.30;0.20;;;5.60;99.90;;;;;;5044490;28;20224;-67
2024/03/24 09:24:52;;;;;;;2.57;0.40;;;5.60;99.90;;;;;;5042219;28;20222;-67
2024/03/24 09:27:18;;;;;;;1.50;0.30;;;5.70;99.90;;;;;;5041203;28;20212;-65
2024/03/24 09:29:45;;;;;;;0.43;0.20;;;5.70;99.90;;;;;;5053280;28;20660;-64
2024/03/24 09:32:12;;;;;;;2.07;1.93;;;5.80;99.90;;;;;;5053203;28;20281;-63
2024/03/24 09:34:42;;;;;;;8.47;8.00;;;5.90;99.90;;;;;;5052306;28;20303;-61
2024/03/24 09:37:08;;;;;;;1.37;0.57;;;6.10;99.90;;;;;;5044109;28;20318;-65
2024/03/24 09:39:35;;;;;;;0.30;0.30;;;6.30;99.90;;;;;;5050255;28;20285;-65
2024/03/24 09:42:04;;;;;;;0.83;0.40;;;6.40;99.90;;;;;;5028030;28;20273;-64
2024/03/24 09:44:31;;;;;;;0.30;0.20;;;6.30;99.90;;;;;;5021509;28;20604;-67
2024/03/24 09:46:59;;;;;;;1.20;0.67;;;6.30;99.90;;;;;;5025862;28;20345;-64
2024/03/24 09:49:32;;;;;;;0.37;0.37;;;6.30;99.90;;;;;;5043325;28;20584;-66
2024/03/24 09:52:00;;;;;;;2.40;0.40;;;6.30;99.90;;;;;;5051427;28;20204;-66
2024/03/24 09:54:28;;;;;;;1.37;0.20;;;6.40;99.90;;;;;;5043114;28;20224;-64
2024/03/24 09:56:54;;;;;;;1.20;0.63;;;6.40;99.90;;;;;;5042595;28;20211;-60
2024/03/24 09:59:23;;;;;;;0.83;0.30;;;6.60;99.90;;;;;;5049368;28;20286;-62
2024/03/24 10:01:50;;;;;;;0.63;0.10;;;6.70;99.90;;;;;;5051688;28;20301;-61
2024/03/24 10:04:21;;;;;;;0.60;0.20;;;6.80;99.90;;;;;;5050915;28;20263;-63
2024/03/24 10:06:48;;;;;;;0.40;0.20;;;6.90;99.90;;;;;;5040491;28;20211;-59
2024/03/24 10:09:17;;;;;;;0.60;0.13;;;6.90;99.90;;;;;;5041821;28;20203;-61
2024/03/24 10:11:43;;;;;;;0.77;0.30;;;6.90;99.90;;;;;;5040205;28;20337;-62
2024/03/24 10:14:10;;;;;;;0.53;0.30;;;7.00;99.90;;;;;;5038580;28;20253;-62
2024/03/24 10:16:36;;;;;;;0.20;0.20;;;6.90;99.90;;;;;;5040502;28;20208;-64
2024/03/24 10:19:23;;;;;;;1.40;0.10;;;6.90;99.90;;;;;;5033416;28;20207;-64
2024/03/24 10:21:52;;;;;;;0.20;0.10;;;6.80;99.90;;;;;;5047722;28;20222;-63
2024/03/24 10:24:19;;;;;;;1.90;0.30;;;6.70;99.90;;;;;;5046694;28;20736;-64
2024/03/24 10:26:45;;;;;;;0.63;0.10;;;6.80;99.90;;;;;;5048025;28;20207;-63
2024/03/24 10:29:12;;;;;;;0.33;0.33;;;6.80;99.90;;;;;;5035022;28;20281;-65
2024/03/24 10:31:38;;;;;;;2.50;0.30;;;7.00;99.90;;;;;;5040764;28;20684;-66
2024/03/24 10:34:05;;;;;;;0.23;0.23;;;7.00;99.90;;;;;;5044522;28;20216;-65
2024/03/24 10:36:31;;;;;;;0.80;0.80;;;7.20;99.90;;;;;;5044998;28;20679;-63
2024/03/24 10:39:06;;;;;;;1.33;0.30;;;7.50;99.90;;;;;;5041462;28;20290;-63
2024/03/24 10:41:35;;;;;;;0.10;0.10;;;7.70;99.90;;;;;;5043716;28;20298;-64
2024/03/24 10:44:03;;;;;;;0.10;0.10;;;7.80;99.90;;;;;;5043856;28;20248;-65
2024/03/24 10:46:31;;;;;;;0.10;0.10;;;8.00;99.90;;;;;;5049386;28;20215;-64
2024/03/24 10:49:00;;;;;;;1.93;0.13;;;8.40;99.90;;;;;;5046682;28;20667;-64
2024/03/24 10:51:31;;;;;;;0.43;0.20;;;8.30;99.90;;;;;;5045010;28;20192;-64
2024/03/24 10:54:02;;;;;;;2.00;0.20;;;8.30;99.90;;;;;;5047928;28;20315;-63
2024/03/24 10:56:30;;;;;;;0.27;0.10;;;8.10;99.90;;;;;;5043294;28;20219;-64
2024/03/24 10:58:59;;;;;;;0.40;0.20;;;;;;;;;;5045192;28;20287;-63
2024/03/24 11:01:27;;;;;;;0.93;0.10;;;7.80;99.90;;;;;;5043108;28;20262;-62
2024/03/24 11:03:56;;;;;;;0.10;0.10;;;7.80;99.90;;;;;;5044352;28;20227;-63
2024/03/24 11:06:25;;;;;;;0.20;0.10;;;7.50;99.90;;;;;;5043337;28;20671;-63
2024/03/24 11:08:51;;;;;;;0.17;0.13;;;7.20;99.90;;;;;;5044477;28;20257;-63
2024/03/24 11:11:20;;;;;;;0.27;0.20;;;;;;;;;;5045226;28;20295;-63
2024/03/24 11:13:46;;;;;;;0.83;0.30;;;7.00;99.90;;;;;;5036794;28;20703;-62
2024/03/24 11:16:14;;;;;;;3.30;0.20;;;7.00;99.90;;;;;;5034929;28;20291;-63
2024/03/24 11:18:40;;;;;;;0.33;0.10;;;6.80;99.90;;;;;;5044334;28;20265;-63
2024/03/24 11:21:07;;;;;;;4.87;4.67;;;6.70;99.90;;;;;;5048143;28;20223;-63
2024/03/24 11:23:34;;;;;;;1.27;0.77;;;6.80;99.90;;;;;;5045312;28;20201;-62
2024/03/24 11:26:04;;;;;;;1.90;0.57;;;6.90;99.90;;;;;;5045383;28;20212;-62
2024/03/24 11:28:43;;;;;;;0.97;0.20;;;7.00;99.90;;;;;;5045940;28;20212;-63
2024/03/24 11:31:15;;;;;;;1.20;0.10;;;6.90;99.90;;;;;;5047883;28;20236;-63
2024/03/24 11:33:43;;;;;;;0.10;0.10;;;6.90;99.90;;;;;;5048273;28;20235;-63
2024/03/24 11:36:28;;;;;;;0.60;0.10;;;7.00;99.90;;;;;;5047860;28;20207;-63
2024/03/24 11:38:55;;;;;;;1.50;0.90;;;7.10;99.90;;;;;;5045089;28;20207;-62
2024/03/24 11:41:23;;;;;;;0.20;0.20;;;7.10;99.90;;;;;;5049562;28;20706;-62
2024/03/24 11:43:56;;;;;;;0.37;0.37;;;7.20;99.90;;;;;;5044881;28;20228;-62
2024/03/24 11:46:23;;;;;;;0.20;0.20;;;7.30;99.90;;;;;;5042363;28;20250;-63
2024/03/24 11:48:53;;;;;;;0.60;0.10;;;7.30;99.90;;;;;;5042889;28;20612;-61
2024/03/24 11:51:22;;;;;;;0.30;0.10;;;7.20;99.90;;;;;;5041762;28;21879;-62
2024/03/24 11:53:51;;;;;;;0.07;0.00;;;7.00;99.90;;;;;;5042790;28;20302;-63
2024/03/24 11:56:19;;;;;;;0.23;0.17;;;6.80;99.90;;;;;;5048259;28;20234;-62
2024/03/24 11:58:49;;;;;;;2.37;0.33;;;6.90;99.90;;;;;;5038530;28;20207;-62
2024/03/24 12:01:18;;;;;;;0.40;0.30;;;6.80;99.90;;;;;;5039688;28;20234;-63
2024/03/24 12:03:44;;;;;;;1.07;0.20;;;6.90;99.90;;;;;;5042091;28;20219;-63
2024/03/24 12:06:14;;;;;;;0.47;0.23;;;7.00;99.90;;;;;;5045088;28;20203;-63
2024/03/24 12:08:40;;;;;;;0.63;0.30;;;7.00;99.90;;;;;;5040298;28;20490;-62
2024/03/24 12:11:07;;;;;;;0.93;0.20;;;7.00;99.90;;;;;;5045686;28;20214;-63
2024/03/24 12:13:34;;;;;;;0.80;0.60;;;7.20;99.90;;;;;;5043449;28;20265;-63
2024/03/24 12:16:01;;;;;;;1.40;0.20;;;7.30;99.90;;;;;;5041951;28;20228;-63
2024/03/24 12:18:29;;;;;;;0.63;0.13;;;7.50;99.90;;;;;;5045059;28;20216;-63
2024/03/24 12:20:56;;;;;;;2.70;0.20;;;7.60;99.90;;;;;;5045494;28;20731;-63
2024/03/24 12:23:25;;;;;;;0.30;0.20;;;7.60;99.90;;;;;;5040357;28;20217;-63
2024/03/24 12:25:54;;;;;;;0.50;0.10;;;7.70;99.90;;;;;;5046768;28;20762;-62
2024/03/24 12:28:20;;;;;;;1.17;0.40;;;7.80;99.90;;;;;;5051298;28;20290;-62
2024/03/24 12:30:51;;;;;;;0.20;0.20;;;7.90;99.90;;;;;;5041169;28;20199;-63
2024/03/24 12:33:19;;;;;;;0.10;0.10;;;8.10;99.90;;;;;;5041275;28;20226;-67
2024/03/24 12:35:48;;;;;;;0.77;0.10;;;8.40;99.90;;;;;;5042849;28;20192;-62
2024/03/24 12:38:14;;;;;;;0.10;0.10;;;8.70;99.90;;;;;;5040198;28;20668;-66
2024/03/24 12:40:50;;;;;;;1.80;0.40;;;8.90;99.90;;;;;;5043024;28;20192;-66
2024/03/24 12:43:16;;;;;;;0.37;0.37;;;9.00;99.90;;;;;;5039540;28;20265;-67
2024/03/24 12:45:51;;;;;;;0.97;0.10;;;8.90;99.90;;;;;;5041580;28;20237;-67
2024/03/24 12:48:17;;;;;;;0.53;0.30;;;8.70;99.90;;;;;;5048667;28;20242;-68
2024/03/24 12:50:45;;;;;;;0.40;0.20;;;8.40;99.90;;;;;;5048813;28;20200;-67
2024/03/24 12:53:24;;;;;;;0.93;0.40;;;8.40;99.90;;;;;;5053606;28;20196;-65
2024/03/24 12:55:54;;;;;;;0.73;0.07;;;8.00;99.90;;;;;;5051655;28;20233;-64
2024/03/24 12:58:22;;;;;;;0.57;0.13;;;6.90;99.90;;;;;;5051685;28;20242;-65